createdAt,value
2023-05-15T00:02:14.764Z,13.86
2023-05-15T00:04:43.845Z,13.82
2023-05-15T00:07:12.410Z,13.78
2023-05-15T00:09:43.636Z,13.74
2023-05-15T00:12:13.559Z,13.70
2023-05-15T00:14:42.243Z,13.69
2023-05-15T00:17:11.025Z,13.68
2023-05-15T00:19:39.946Z,13.66
2023-05-15T00:22:08.709Z,13.63
2023-05-15T00:24:37.309Z,13.59
2023-05-15T00:27:06.403Z,13.57
2023-05-15T00:29:36.459Z,13.54
2023-05-15T00:32:05.515Z,13.51
2023-05-15T00:34:34.092Z,13.46
2023-05-15T00:37:03.497Z,13.40
2023-05-15T00:39:33.432Z,13.37
2023-05-15T00:42:03.296Z,13.34
2023-05-15T00:44:33.084Z,13.29
2023-05-15T00:47:04.812Z,13.25
2023-05-15T00:49:35.511Z,13.20
2023-05-15T00:52:05.593Z,13.16
2023-05-15T00:54:34.361Z,13.14
2023-05-15T00:57:06.320Z,13.12
2023-05-15T00:59:35.795Z,13.10
2023-05-15T01:02:05.773Z,13.09
2023-05-15T01:04:34.545Z,13.05
2023-05-15T01:07:03.158Z,13.03
2023-05-15T01:09:33.425Z,13.01
2023-05-15T01:12:03.495Z,13.00
2023-05-15T01:14:32.201Z,12.97
2023-05-15T01:17:01.203Z,12.93
2023-05-15T01:19:31.461Z,12.91
2023-05-15T01:22:30.741Z,12.88
2023-05-15T01:25:45.753Z,12.86
2023-05-15T01:28:23.227Z,12.85
2023-05-15T01:30:56.226Z,12.83
2023-05-15T01:33:30.308Z,12.81
2023-05-15T01:36:05.973Z,12.79
2023-05-15T01:38:39.796Z,12.79
2023-05-15T01:41:15.520Z,12.77
2023-05-15T01:43:49.998Z,12.76
2023-05-15T01:46:23.141Z,12.74
2023-05-15T01:48:53.293Z,12.76
2023-05-15T01:51:23.452Z,12.80
2023-05-15T01:53:53.529Z,12.82
2023-05-15T01:56:25.070Z,12.84
2023-05-15T01:58:57.251Z,12.86
2023-05-15T02:01:27.423Z,12.89
2023-05-15T02:03:57.153Z,12.92
2023-05-15T02:06:26.831Z,12.94
2023-05-15T02:08:57.438Z,12.97
2023-05-15T02:11:26.036Z,12.98
2023-05-15T02:13:58.029Z,13.00
2023-05-15T02:16:26.694Z,13.02
2023-05-15T02:18:58.147Z,13.05
2023-05-15T02:21:27.084Z,13.06
2023-05-15T02:23:55.574Z,13.09
2023-05-15T02:26:33.020Z,13.13
2023-05-15T02:29:14.723Z,13.19
2023-05-15T02:31:53.656Z,13.24
2023-05-15T02:34:33.374Z,13.28
2023-05-15T02:37:04.331Z,13.32
2023-05-15T02:39:34.446Z,13.36
2023-05-15T02:42:03.685Z,13.39
2023-05-15T02:44:36.834Z,13.44
2023-05-15T02:47:07.042Z,13.45
2023-05-15T02:49:36.685Z,13.46
2023-05-15T02:52:05.922Z,13.48
2023-05-15T02:54:34.463Z,13.51
2023-05-15T02:57:02.949Z,13.53
2023-05-15T02:59:33.948Z,13.56
2023-05-15T03:02:03.651Z,13.58
2023-05-15T03:04:32.275Z,13.61
2023-05-15T03:07:00.770Z,13.61
2023-05-15T03:09:29.384Z,13.64
2023-05-15T03:11:57.846Z,13.65
2023-05-15T03:14:26.363Z,13.65
2023-05-15T03:16:56.393Z,13.63
2023-05-15T03:19:25.042Z,13.63
2023-05-15T03:21:53.557Z,13.62
2023-05-15T03:24:22.299Z,13.61
2023-05-15T03:26:50.854Z,13.59
2023-05-15T03:29:19.316Z,13.61
2023-05-15T03:31:47.861Z,13.61
2023-05-15T03:34:17.890Z,13.62
2023-05-15T03:36:46.336Z,13.63
2023-05-15T03:39:14.852Z,13.64
2023-05-15T03:41:43.501Z,13.64
2023-05-15T03:44:12.045Z,13.62
2023-05-15T03:46:41.609Z,13.61
2023-05-15T03:49:12.803Z,13.59
2023-05-15T03:51:42.741Z,13.58
2023-05-15T03:54:11.274Z,13.58
2023-05-15T03:56:39.982Z,13.60
2023-05-15T03:59:08.580Z,13.58
2023-05-15T04:01:47.326Z,13.56
2023-05-15T04:04:27.262Z,13.54
2023-05-15T04:06:57.095Z,13.52
2023-05-15T04:09:25.577Z,13.49
2023-05-15T04:11:54.227Z,13.50
2023-05-15T04:14:22.846Z,13.50
2023-05-15T04:16:51.460Z,13.50
2023-05-15T04:19:20.258Z,13.48
2023-05-15T04:21:48.817Z,13.44
2023-05-15T04:24:18.710Z,13.42
2023-05-15T04:26:47.284Z,13.42
2023-05-15T04:29:15.903Z,13.39
2023-05-15T04:31:44.441Z,13.36
2023-05-15T04:34:12.941Z,13.32
2023-05-15T04:36:42.934Z,13.29
2023-05-15T04:39:12.582Z,13.27
2023-05-15T04:41:42.398Z,13.25
2023-05-15T04:44:11.151Z,13.27
2023-05-15T04:46:40.227Z,13.29
2023-05-15T04:49:08.901Z,13.31
2023-05-15T04:51:37.861Z,13.26
2023-05-15T04:54:07.097Z,13.23
2023-05-15T04:57:28.691Z,13.23
2023-05-15T04:59:59.293Z,13.23
2023-05-15T05:02:30.800Z,13.24
2023-05-15T05:04:59.378Z,13.24
2023-05-15T05:07:27.946Z,13.26
2023-05-15T05:09:56.744Z,13.26
2023-05-15T05:12:26.648Z,13.25
2023-05-15T05:14:58.707Z,13.24
2023-05-15T05:17:28.522Z,13.23
2023-05-15T05:19:57.625Z,13.21
2023-05-15T05:22:26.500Z,13.19
2023-05-15T05:24:56.435Z,13.14
2023-05-15T05:27:25.629Z,13.12
2023-05-15T05:29:54.660Z,13.13
2023-05-15T05:32:25.047Z,13.15
2023-05-15T05:34:54.577Z,13.15
2023-05-15T05:37:23.494Z,13.14
2023-05-15T05:39:52.263Z,13.16
2023-05-15T05:42:21.138Z,13.16
2023-05-15T05:44:50.130Z,13.15
2023-05-15T05:47:19.265Z,13.14
2023-05-15T05:49:49.611Z,13.17
2023-05-15T05:52:18.541Z,13.18
2023-05-15T05:54:48.311Z,13.17
2023-05-15T05:57:17.500Z,13.19
2023-05-15T05:59:46.933Z,13.17
2023-05-15T06:02:16.480Z,13.20
2023-05-15T06:04:46.061Z,13.21
2023-05-15T06:07:16.129Z,13.23
2023-05-15T06:09:45.984Z,13.24
2023-05-15T06:12:14.499Z,13.25
2023-05-15T06:14:43.044Z,13.26
2023-05-15T06:17:11.580Z,13.26
2023-05-15T06:19:40.233Z,13.28
2023-05-15T06:22:08.809Z,13.30
2023-05-15T06:24:38.686Z,13.28
2023-05-15T06:27:07.201Z,13.27
2023-05-15T06:29:35.836Z,13.29
2023-05-15T06:32:04.433Z,13.29
2023-05-15T06:34:32.949Z,13.28
2023-05-15T06:37:02.315Z,13.28
2023-05-15T06:39:30.737Z,13.30
2023-05-15T06:42:01.597Z,13.29
2023-05-15T06:44:32.280Z,13.29
2023-05-15T06:47:01.082Z,13.31
2023-05-15T06:49:31.341Z,13.33
2023-05-15T06:52:01.158Z,13.34
2023-05-15T06:54:29.729Z,13.39
2023-05-15T06:56:58.322Z,13.40
2023-05-15T06:59:28.401Z,13.39
2023-05-15T07:01:57.010Z,13.37
2023-05-15T07:04:26.243Z,13.40
2023-05-15T07:06:54.900Z,13.43
2023-05-15T07:09:23.430Z,13.47
2023-05-15T07:11:52.019Z,13.49
2023-05-15T07:14:20.763Z,13.53
2023-05-15T07:16:50.642Z,13.57
2023-05-15T07:19:20.990Z,13.60
2023-05-15T07:21:49.808Z,13.63
2023-05-15T07:24:18.410Z,13.67
2023-05-15T07:26:58.132Z,13.68
2023-05-15T07:29:27.971Z,13.71
2023-05-15T07:31:58.281Z,13.70
2023-05-15T07:34:26.934Z,13.70
2023-05-15T07:36:55.380Z,13.73
2023-05-15T07:39:24.426Z,13.78
2023-05-15T07:41:53.156Z,13.85
2023-05-15T07:44:21.996Z,13.90
2023-05-15T07:46:50.776Z,13.93
2023-05-15T07:49:20.853Z,13.96
2023-05-15T07:51:49.765Z,14.00
2023-05-15T07:54:18.316Z,14.03
2023-05-15T07:56:47.077Z,14.09
2023-05-15T07:59:16.121Z,14.14
2023-05-15T08:01:44.633Z,14.15
2023-05-15T08:04:13.440Z,14.18
2023-05-15T08:06:44.497Z,14.20
2023-05-15T08:09:13.217Z,14.22
2023-05-15T08:11:41.618Z,14.21
2023-05-15T08:14:12.444Z,14.20
2023-05-15T08:16:42.376Z,14.21
2023-05-15T08:19:10.823Z,14.23
2023-05-15T08:21:39.374Z,14.26
2023-05-15T08:24:09.694Z,14.28
2023-05-15T08:26:38.093Z,14.31
2023-05-15T08:29:06.670Z,14.34
2023-05-15T08:31:35.162Z,14.36
2023-05-15T08:34:03.738Z,14.38
2023-05-15T08:36:32.337Z,14.39
2023-05-15T08:39:00.785Z,14.41
2023-05-15T08:41:40.670Z,14.44
2023-05-15T08:44:11.050Z,14.48
2023-05-15T08:46:39.951Z,14.54
2023-05-15T08:49:15.647Z,14.58
2023-05-15T08:51:44.514Z,14.63
2023-05-15T08:54:13.760Z,14.70
2023-05-15T08:56:44.328Z,14.76
2023-05-15T08:59:12.991Z,14.83
2023-05-15T09:01:41.410Z,14.92
2023-05-15T09:04:10.174Z,15.00
2023-05-15T09:06:39.440Z,15.07
2023-05-15T09:09:13.483Z,15.10
2023-05-15T09:11:45.954Z,15.11
2023-05-15T09:14:14.556Z,15.13
2023-05-15T09:16:43.388Z,15.16
2023-05-15T09:19:12.416Z,15.19
2023-05-15T09:21:40.944Z,15.25
2023-05-15T09:24:21.168Z,15.29
2023-05-15T09:27:03.958Z,15.36
2023-05-15T09:29:33.428Z,15.38
2023-05-15T09:32:04.812Z,15.40
2023-05-15T09:34:34.377Z,15.43
2023-05-15T09:37:04.334Z,15.44
2023-05-15T09:39:32.815Z,15.45
2023-05-15T09:42:09.530Z,15.50
2023-05-15T09:44:42.455Z,15.56
2023-05-15T09:47:11.246Z,15.63
2023-05-15T09:49:39.916Z,15.69
2023-05-15T09:52:10.161Z,15.76
2023-05-15T09:54:39.754Z,15.84
2023-05-15T09:57:14.324Z,15.92
2023-05-15T09:59:45.892Z,15.98
2023-05-15T10:02:23.393Z,16.06
2023-05-15T10:04:58.809Z,16.15
2023-05-15T10:07:30.710Z,16.25
2023-05-15T10:09:59.868Z,16.33
2023-05-15T10:12:32.055Z,16.41
2023-05-15T10:15:01.348Z,16.49
2023-05-15T10:17:32.790Z,16.55
2023-05-15T10:20:05.218Z,16.60
2023-05-15T10:22:38.696Z,16.67
2023-05-15T10:25:16.920Z,16.73
2023-05-15T10:27:48.510Z,16.78
2023-05-15T10:30:17.958Z,16.83
2023-05-15T10:32:46.931Z,16.90
2023-05-15T10:35:16.443Z,16.93
2023-05-15T10:37:46.387Z,16.97
2023-05-15T10:40:17.186Z,16.98
2023-05-15T10:42:48.724Z,17.03
2023-05-15T10:45:17.654Z,17.09
2023-05-15T10:47:47.244Z,17.16
2023-05-15T10:50:16.367Z,17.25
2023-05-15T10:52:44.923Z,17.32
2023-05-15T10:55:17.473Z,17.38
2023-05-15T10:57:48.287Z,17.47
2023-05-15T11:00:27.941Z,17.58
2023-05-15T11:02:58.721Z,17.67
2023-05-15T11:05:31.123Z,17.77
2023-05-15T11:08:27.531Z,17.87
2023-05-15T11:10:56.311Z,17.96
2023-05-15T11:13:26.612Z,18.08
2023-05-15T11:15:55.038Z,18.18
2023-05-15T11:18:23.486Z,18.25
2023-05-15T11:21:11.178Z,18.26
2023-05-15T11:23:41.647Z,18.30
2023-05-15T11:26:14.864Z,18.39
2023-05-15T11:28:47.174Z,18.46
2023-05-15T11:31:16.058Z,18.57
2023-05-15T11:33:44.695Z,18.67
2023-05-15T11:36:15.881Z,18.78
2023-05-15T11:38:44.570Z,18.85
2023-05-15T11:41:21.797Z,18.91
2023-05-15T11:43:51.864Z,19.00
2023-05-15T11:46:22.594Z,19.10
2023-05-15T11:48:51.828Z,19.21
2023-05-15T11:51:22.310Z,19.27
2023-05-15T11:53:52.430Z,19.33
2023-05-15T11:56:22.695Z,19.42
2023-05-15T11:58:53.578Z,19.48
2023-05-15T12:01:22.127Z,19.56
2023-05-15T12:03:51.421Z,19.61
2023-05-15T12:06:20.291Z,19.65
2023-05-15T12:08:52.879Z,19.74
2023-05-15T12:11:23.409Z,19.86
2023-05-15T12:13:55.006Z,19.87
2023-05-15T12:16:25.952Z,19.94
2023-05-15T12:18:54.763Z,20.08
2023-05-15T12:21:23.255Z,20.20
2023-05-15T12:24:06.300Z,20.31
2023-05-15T12:26:36.505Z,20.38
2023-05-15T12:29:07.018Z,20.46
2023-05-15T12:31:37.178Z,20.46
2023-05-15T12:34:05.784Z,20.53
2023-05-15T12:36:34.450Z,20.64
2023-05-15T12:39:07.845Z,20.74
2023-05-15T12:41:38.334Z,20.79
2023-05-15T12:44:08.282Z,20.88
2023-05-15T12:46:36.809Z,20.98
2023-05-15T12:49:05.273Z,21.00
2023-05-15T12:51:33.756Z,21.14
2023-05-15T12:54:02.275Z,21.19
2023-05-15T12:56:31.013Z,21.29
2023-05-15T12:58:59.666Z,21.44
2023-05-15T13:01:30.043Z,21.56
2023-05-15T13:04:04.138Z,21.73
2023-05-15T13:06:46.621Z,21.72
2023-05-15T13:09:27.160Z,21.70
2023-05-15T13:11:58.406Z,21.70
2023-05-15T13:14:30.659Z,21.81
2023-05-15T13:17:05.380Z,21.89
2023-05-15T13:19:41.410Z,21.94
2023-05-15T13:22:11.178Z,22.08
2023-05-15T13:24:43.122Z,22.13
2023-05-15T13:27:11.465Z,22.01
2023-05-15T13:29:39.950Z,21.85
2023-05-15T13:32:09.943Z,21.68
2023-05-15T13:34:38.369Z,21.58
2023-05-15T13:37:06.836Z,21.50
2023-05-15T13:39:35.228Z,21.45
2023-05-15T13:42:03.800Z,21.38
2023-05-15T13:44:32.276Z,21.26
2023-05-15T13:47:04.310Z,21.18
2023-05-15T13:49:34.128Z,21.17
2023-05-15T13:52:02.562Z,21.21
2023-05-15T13:54:30.980Z,21.33
2023-05-15T13:56:59.517Z,21.47
2023-05-15T13:59:28.275Z,21.68
2023-05-15T14:01:56.864Z,21.86
2023-05-15T14:04:25.474Z,21.95
2023-05-15T14:06:55.448Z,21.91
2023-05-15T14:09:23.828Z,21.88
2023-05-15T14:11:52.286Z,21.86
2023-05-15T14:14:20.840Z,21.89
2023-05-15T14:16:49.272Z,21.96
2023-05-15T14:19:17.882Z,22.07
2023-05-15T14:21:46.482Z,22.17
2023-05-15T14:24:16.232Z,22.30
2023-05-15T14:26:45.225Z,22.27
2023-05-15T14:29:13.722Z,22.26
2023-05-15T14:31:44.795Z,22.29
2023-05-15T14:34:13.219Z,22.26
2023-05-15T14:36:46.747Z,22.28
2023-05-15T14:39:17.335Z,22.30
2023-05-15T14:41:46.485Z,22.21
2023-05-15T14:44:14.980Z,22.10
2023-05-15T14:46:44.035Z,22.06
2023-05-15T14:49:12.601Z,22.07
2023-05-15T14:51:41.413Z,22.10
2023-05-15T14:54:09.924Z,22.16
2023-05-15T14:56:39.759Z,22.08
2023-05-15T14:59:08.363Z,22.09
2023-05-15T15:01:36.954Z,22.06
2023-05-15T15:04:06.034Z,22.05
2023-05-15T15:06:34.628Z,22.03
2023-05-15T15:09:03.491Z,22.00
2023-05-15T15:11:31.898Z,21.90
2023-05-15T15:14:02.142Z,21.79
2023-05-15T15:16:30.646Z,21.67
2023-05-15T15:18:59.148Z,21.56
2023-05-15T15:21:28.361Z,21.51
2023-05-15T15:23:56.815Z,21.50
2023-05-15T15:26:25.955Z,21.58
2023-05-15T15:28:55.242Z,21.67
2023-05-15T15:31:25.230Z,21.76
2023-05-15T15:33:53.839Z,21.88
2023-05-15T15:36:22.369Z,22.00
2023-05-15T15:38:50.968Z,21.96
2023-05-15T15:41:21.166Z,21.87
2023-05-15T15:43:52.509Z,21.77
2023-05-15T15:46:21.079Z,21.57
2023-05-15T15:48:51.043Z,21.37
2023-05-15T15:51:19.424Z,21.21
2023-05-15T15:53:47.829Z,21.08
2023-05-15T15:56:16.240Z,20.95
2023-05-15T15:58:44.674Z,20.79
2023-05-15T16:01:13.112Z,20.65
2023-05-15T16:03:41.572Z,20.46
2023-05-15T16:06:11.544Z,20.29
2023-05-15T16:08:40.082Z,20.11
2023-05-15T16:11:08.514Z,19.89
2023-05-15T16:13:37.912Z,19.79
2023-05-15T16:16:07.154Z,19.76
2023-05-15T16:18:35.911Z,19.72
2023-05-15T16:21:04.700Z,19.71
2023-05-15T16:23:36.421Z,19.71
2023-05-15T16:26:05.052Z,19.72
2023-05-15T16:28:33.523Z,19.69
2023-05-15T16:31:03.112Z,19.62
2023-05-15T16:33:32.212Z,19.56
2023-05-15T16:36:05.120Z,19.55
2023-05-15T16:38:35.063Z,19.52
2023-05-15T16:41:03.539Z,19.49
2023-05-15T16:43:31.973Z,19.47
2023-05-15T16:46:00.669Z,19.37
2023-05-15T16:48:29.123Z,19.35
2023-05-15T16:50:57.723Z,19.29
2023-05-15T16:53:26.259Z,19.18
2023-05-15T16:55:56.288Z,19.09
2023-05-15T16:58:24.730Z,19.03
2023-05-15T17:00:53.298Z,18.99
2023-05-15T17:03:22.148Z,19.02
2023-05-15T17:05:51.365Z,19.04
2023-05-15T17:08:20.182Z,19.07
2023-05-15T17:10:48.738Z,19.05
2023-05-15T17:13:18.553Z,18.99
2023-05-15T17:15:49.732Z,18.92
2023-05-15T17:18:18.331Z,18.90
2023-05-15T17:20:46.860Z,18.84
2023-05-15T17:23:15.374Z,18.75
2023-05-15T17:25:43.951Z,18.64
2023-05-15T17:28:12.875Z,18.56
2023-05-15T17:30:43.489Z,18.50
2023-05-15T17:33:17.472Z,18.44
2023-05-15T17:35:47.197Z,18.41
2023-05-15T17:38:16.922Z,18.37
2023-05-15T17:40:46.140Z,18.32
2023-05-15T17:43:16.070Z,18.26
2023-05-15T17:45:49.760Z,18.20
2023-05-15T17:48:19.017Z,18.16
2023-05-15T17:50:47.965Z,18.09
2023-05-15T17:53:19.839Z,18.00
2023-05-15T17:55:49.464Z,17.92
2023-05-15T17:58:18.576Z,17.86
2023-05-15T18:00:47.310Z,17.79
2023-05-15T18:03:21.195Z,17.73
2023-05-15T18:05:51.951Z,17.66
2023-05-15T18:08:21.165Z,17.60
2023-05-15T18:10:50.453Z,17.56
2023-05-15T18:13:19.155Z,17.48
2023-05-15T18:15:49.009Z,17.40
2023-05-15T18:18:20.226Z,17.32
2023-05-15T18:20:49.736Z,17.24
2023-05-15T18:23:19.829Z,17.12
2023-05-15T18:25:48.310Z,16.99
2023-05-15T18:28:17.064Z,16.86
2023-05-15T18:30:46.405Z,16.73
2023-05-15T18:33:15.225Z,16.60
2023-05-15T18:35:45.985Z,16.49
2023-05-15T18:38:15.237Z,16.41
2023-05-15T18:40:48.093Z,16.33
2023-05-15T18:43:18.263Z,16.27
2023-05-15T18:45:50.411Z,16.22
2023-05-15T18:48:22.871Z,16.17
2023-05-15T18:50:54.315Z,16.13
2023-05-15T18:53:25.199Z,16.09
2023-05-15T18:55:54.853Z,16.04
2023-05-15T18:58:24.797Z,16.00
2023-05-15T19:00:53.864Z,15.96
2023-05-15T19:03:23.038Z,15.92
2023-05-15T19:05:53.787Z,15.89
2023-05-15T19:08:23.123Z,15.86
2023-05-15T19:10:52.259Z,15.83
2023-05-15T19:13:29.943Z,15.77
2023-05-15T19:15:58.675Z,15.72
2023-05-15T19:18:27.143Z,15.67
2023-05-15T19:20:57.099Z,15.58
2023-05-15T19:23:25.723Z,15.51
2023-05-15T19:25:54.525Z,15.44
2023-05-15T19:28:23.030Z,15.38
2023-05-15T19:30:51.700Z,15.34
2023-05-15T19:33:20.276Z,15.28
2023-05-15T19:35:49.027Z,15.22
2023-05-15T19:38:21.683Z,15.16
2023-05-15T19:40:50.089Z,15.12
2023-05-15T19:43:18.614Z,15.05
2023-05-15T19:45:47.259Z,15.00
2023-05-15T19:48:16.626Z,14.96
2023-05-15T19:50:46.440Z,14.92
2023-05-15T19:53:20.160Z,14.87
2023-05-15T19:55:48.968Z,14.84
2023-05-15T19:58:20.189Z,14.80
2023-05-15T20:00:52.749Z,14.77
2023-05-15T20:03:25.883Z,14.73
2023-05-15T20:05:55.755Z,14.70
2023-05-15T20:08:25.893Z,14.65
2023-05-15T20:10:55.571Z,14.61
2023-05-15T20:13:24.621Z,14.59
2023-05-15T20:15:58.202Z,14.56
2023-05-15T20:18:27.787Z,14.57
2023-05-15T20:20:57.349Z,14.57
2023-05-15T20:23:27.560Z,14.55
2023-05-15T20:25:56.660Z,14.55
2023-05-15T20:28:27.266Z,14.53
2023-05-15T20:31:00.518Z,14.50
2023-05-15T20:33:29.297Z,14.49
2023-05-15T20:36:00.366Z,14.45
2023-05-15T20:38:30.386Z,14.42
2023-05-15T20:40:59.976Z,14.41
2023-05-15T20:43:28.953Z,14.40
2023-05-15T20:45:58.579Z,14.40
2023-05-15T20:48:27.305Z,14.38
2023-05-15T20:51:02.610Z,14.38
2023-05-15T20:53:33.007Z,14.37
2023-05-15T20:56:01.657Z,14.34
2023-05-15T20:58:30.796Z,14.33
2023-05-15T21:01:01.549Z,14.30
2023-05-15T21:03:30.507Z,14.27
2023-05-15T21:06:01.384Z,14.24
2023-05-15T21:08:32.013Z,14.22
2023-05-15T21:11:05.138Z,14.19
2023-05-15T21:13:33.885Z,14.15
2023-05-15T21:16:02.323Z,14.13
2023-05-15T21:18:32.972Z,14.11
2023-05-15T21:21:03.118Z,14.10
2023-05-15T21:23:31.621Z,14.08
2023-05-15T21:26:00.293Z,14.09
2023-05-15T21:28:30.255Z,14.06
2023-05-15T21:31:00.450Z,14.06
2023-05-15T21:33:28.967Z,14.06
2023-05-15T21:35:57.446Z,14.07
2023-05-15T21:38:25.912Z,14.05
2023-05-15T21:40:54.472Z,14.02
2023-05-15T21:43:22.919Z,14.00
2023-05-15T21:45:55.376Z,13.98
2023-05-15T21:48:23.840Z,13.97
2023-05-15T21:50:55.791Z,13.96
2023-05-15T21:53:25.375Z,13.97
2023-05-15T21:55:56.402Z,13.96
2023-05-15T21:58:25.381Z,13.95
2023-05-15T22:00:55.392Z,13.94
2023-05-15T22:03:24.167Z,13.93
2023-05-15T22:05:53.192Z,13.92
2023-05-15T22:08:21.769Z,13.89
2023-05-15T22:10:50.598Z,13.87
2023-05-15T22:13:19.068Z,13.84
2023-05-15T22:15:47.610Z,13.84
2023-05-15T22:18:17.456Z,13.82
2023-05-15T22:20:48.735Z,13.79
2023-05-15T22:23:17.556Z,13.75
2023-05-15T22:25:46.073Z,13.74
2023-05-15T22:28:14.620Z,13.74
2023-05-15T22:30:43.106Z,13.73
2023-05-15T22:33:11.669Z,13.71
2023-05-15T22:35:41.679Z,13.70
2023-05-15T22:38:10.198Z,13.70
2023-05-15T22:40:38.728Z,13.68
2023-05-15T22:43:07.253Z,13.65
2023-05-15T22:45:35.812Z,13.61
2023-05-15T22:48:04.433Z,13.57
2023-05-15T22:50:33.059Z,13.52
2023-05-15T22:53:03.062Z,13.50
2023-05-15T22:55:31.638Z,13.45
2023-05-15T22:58:00.236Z,13.39
2023-05-15T23:00:29.184Z,13.32
2023-05-15T23:02:58.022Z,13.26
2023-05-15T23:05:27.648Z,13.21
2023-05-15T23:07:56.125Z,13.13
2023-05-15T23:10:26.227Z,13.05
2023-05-15T23:12:55.097Z,12.97
2023-05-15T23:15:23.524Z,12.93
2023-05-15T23:17:52.025Z,12.86
2023-05-15T23:20:20.651Z,12.81
2023-05-15T23:22:49.270Z,12.74
2023-05-15T23:25:17.789Z,12.70
2023-05-15T23:27:47.675Z,12.65
2023-05-15T23:30:16.883Z,12.62
2023-05-15T23:32:45.449Z,12.57
2023-05-15T23:35:13.971Z,12.54
2023-05-15T23:37:43.101Z,12.51
2023-05-15T23:40:13.006Z,12.49
2023-05-15T23:42:41.502Z,12.47
2023-05-15T23:45:13.722Z,12.45
2023-05-15T23:47:42.509Z,12.42
2023-05-15T23:50:11.399Z,12.41
2023-05-15T23:52:39.913Z,12.37
2023-05-15T23:55:09.462Z,12.32
2023-05-15T23:57:37.890Z,12.28
